createdAt,value
2018-05-23T00:01:28.969Z,101317.73
2018-05-23T00:03:54.997Z,101331.41
2018-05-23T00:06:20.975Z,101326.14
2018-05-23T00:08:47.055Z,101323.09
2018-05-23T00:11:13.012Z,101322.64
2018-05-23T00:13:39.296Z,101325.03
2018-05-23T00:16:05.171Z,101317.27
2018-05-23T00:18:31.107Z,101322.98
2018-05-23T00:20:57.312Z,101322.18
2018-05-23T00:23:23.176Z,101323.10
2018-05-23T00:25:49.076Z,101319.27
2018-05-23T00:28:15.038Z,101326.34
2018-05-23T00:30:40.968Z,101319.92
2018-05-23T00:33:06.940Z,101328.41
2018-05-23T00:35:32.859Z,101321.92
2018-05-23T00:37:58.739Z,101334.84
2018-05-23T00:40:24.621Z,101333.64
2018-05-23T00:42:50.615Z,101335.52
2018-05-23T00:45:16.584Z,101337.74
2018-05-23T00:47:42.461Z,101336.49
2018-05-23T00:50:08.385Z,101339.70
2018-05-23T00:52:34.304Z,101340.20
2018-05-23T00:55:12.645Z,101336.35
2018-05-23T00:57:38.619Z,101339.97
2018-05-23T01:00:04.616Z,101340.09
2018-05-23T01:02:30.551Z,101341.80
2018-05-23T01:04:56.432Z,101342.33
2018-05-23T01:07:22.380Z,101345.02
2018-05-23T01:09:49.224Z,101347.72
2018-05-23T01:12:15.556Z,101354.42
2018-05-23T01:14:41.497Z,101355.82
2018-05-23T01:17:07.425Z,101358.81
2018-05-23T01:19:33.381Z,101359.34
2018-05-23T01:21:59.365Z,101362.97
2018-05-23T01:24:25.307Z,101365.67
2018-05-23T01:26:51.186Z,101361.78
2018-05-23T01:29:17.228Z,101355.21
2018-05-23T01:31:43.213Z,101364.95
2018-05-23T01:34:09.247Z,101366.33
2018-05-23T01:36:35.132Z,101365.47
2018-05-23T01:39:01.100Z,101366.41
2018-05-23T01:41:26.979Z,101362.53
2018-05-23T01:43:52.932Z,101368.73
2018-05-23T01:46:19.402Z,101367.41
2018-05-23T01:48:57.810Z,101368.78
2018-05-23T01:51:23.744Z,101368.34
2018-05-23T01:53:49.640Z,101371.84
2018-05-23T01:56:15.578Z,101369.19
2018-05-23T01:58:42.064Z,101371.80
2018-05-23T02:01:07.973Z,101376.62
2018-05-23T02:03:33.867Z,101373.58
2018-05-23T02:05:59.793Z,101373.14
2018-05-23T02:08:25.739Z,101366.51
2018-05-23T02:10:51.763Z,101365.69
2018-05-23T02:13:17.706Z,101365.22
2018-05-23T02:15:43.603Z,101365.24
2018-05-23T02:18:09.492Z,101366.53
2018-05-23T02:20:35.856Z,101375.20
2018-05-23T02:23:01.851Z,101376.50
2018-05-23T02:25:27.745Z,101375.64
2018-05-23T02:27:53.665Z,101376.05
2018-05-23T02:30:19.572Z,101373.44
2018-05-23T02:32:45.510Z,101375.71
2018-05-23T02:35:11.577Z,101381.00
2018-05-23T02:37:37.480Z,101387.65
2018-05-23T02:40:03.363Z,101387.22
2018-05-23T02:42:29.286Z,101390.83
2018-05-23T02:44:55.280Z,101392.61
2018-05-23T02:47:21.261Z,101397.94
2018-05-23T02:49:47.198Z,101397.57
2018-05-23T02:52:13.193Z,101396.72
2018-05-23T02:54:39.066Z,101399.39
2018-05-23T02:57:05.060Z,101403.01
2018-05-23T02:59:31.033Z,101406.11
2018-05-23T03:02:03.377Z,101399.12
2018-05-23T03:04:29.363Z,101403.47
2018-05-23T03:06:55.315Z,101408.76
2018-05-23T03:09:21.299Z,101408.75
2018-05-23T03:11:47.368Z,101416.30
2018-05-23T03:14:13.263Z,101411.91
2018-05-23T03:16:39.210Z,101405.75
2018-05-23T03:19:05.259Z,101416.69
2018-05-23T03:21:31.128Z,101422.82
2018-05-23T03:23:57.003Z,101421.49
2018-05-23T03:26:22.927Z,101423.66
2018-05-23T03:28:48.815Z,101430.63
2018-05-23T03:31:14.700Z,101432.45
2018-05-23T03:33:40.637Z,101439.45
2018-05-23T03:36:06.528Z,101442.92
2018-05-23T03:38:32.409Z,101438.55
2018-05-23T03:40:58.349Z,101438.92
2018-05-23T03:43:24.236Z,101437.13
2018-05-23T03:45:50.133Z,101448.92
2018-05-23T03:48:16.057Z,101448.02
2018-05-23T03:50:41.948Z,101440.09
2018-05-23T03:53:07.849Z,101445.31
2018-05-23T03:55:33.783Z,101449.63
2018-05-23T03:57:59.769Z,101457.81
2018-05-23T04:00:38.060Z,101464.37
2018-05-23T04:03:16.395Z,101464.76
2018-05-23T04:05:54.567Z,101468.61
2018-05-23T04:08:20.487Z,101468.39
2018-05-23T04:10:46.369Z,101464.75
2018-05-23T04:13:12.367Z,101473.93
2018-05-23T04:15:38.264Z,101480.00
2018-05-23T04:18:04.143Z,101486.10
2018-05-23T04:20:30.114Z,101486.41
2018-05-23T04:22:55.984Z,101484.62
2018-05-23T04:25:21.864Z,101487.11
2018-05-23T04:27:47.867Z,101489.12
2018-05-23T04:30:13.756Z,101486.62
2018-05-23T04:32:39.636Z,101489.50
2018-05-23T04:35:05.573Z,101485.50
2018-05-23T04:37:31.447Z,101487.98
2018-05-23T04:39:57.341Z,101490.45
2018-05-23T04:42:31.837Z,101486.73
2018-05-23T04:44:57.765Z,101489.73
2018-05-23T04:47:23.893Z,101498.42
2018-05-23T04:49:49.820Z,101501.74
2018-05-23T04:52:15.692Z,101500.14
2018-05-23T04:54:41.563Z,101509.47
2018-05-23T04:57:07.497Z,101505.22
2018-05-23T04:59:33.396Z,101507.23
2018-05-23T05:01:59.271Z,101507.41
2018-05-23T05:04:25.183Z,101517.09
2018-05-23T05:06:51.068Z,101522.94
2018-05-23T05:09:16.943Z,101522.91
2018-05-23T05:11:42.863Z,101525.70
2018-05-23T05:14:08.929Z,101534.06
2018-05-23T05:16:34.800Z,101528.98
2018-05-23T05:19:00.811Z,101538.09
2018-05-23T05:21:26.635Z,101543.92
2018-05-23T05:23:52.510Z,101541.74
2018-05-23T05:26:18.418Z,101543.95
2018-05-23T05:28:44.327Z,101546.80
2018-05-23T05:31:10.217Z,101543.41
2018-05-23T05:33:36.140Z,101546.73
2018-05-23T05:36:02.035Z,101553.84
2018-05-23T05:38:27.903Z,101551.34
2018-05-23T05:40:53.830Z,101561.00
2018-05-23T05:43:19.719Z,101560.91
2018-05-23T05:45:45.642Z,101568.50
2018-05-23T05:48:15.179Z,101573.30
2018-05-23T05:50:41.073Z,101580.26
2018-05-23T05:53:06.962Z,101575.82
2018-05-23T05:55:32.908Z,101578.30
2018-05-23T05:57:58.797Z,101578.44
2018-05-23T06:00:24.707Z,101580.87
2018-05-23T06:02:50.635Z,101585.75
2018-05-23T06:05:16.638Z,101585.31
2018-05-23T06:07:42.603Z,101585.24
2018-05-23T06:10:09.594Z,101587.05
2018-05-23T06:12:35.491Z,101597.80
2018-05-23T06:15:01.423Z,101599.08
2018-05-23T06:17:27.420Z,101603.80
2018-05-23T06:19:53.308Z,101603.84
2018-05-23T06:22:19.379Z,101608.20
2018-05-23T06:24:45.279Z,101609.14
2018-05-23T06:27:11.156Z,101611.45
2018-05-23T06:29:37.027Z,101616.50
2018-05-23T06:32:02.987Z,101615.16
2018-05-23T06:34:28.932Z,101622.33
2018-05-23T06:36:54.849Z,101621.20
2018-05-23T06:39:20.778Z,101627.47
2018-05-23T06:41:46.696Z,101627.47
2018-05-23T06:44:12.581Z,101626.95
2018-05-23T06:46:38.540Z,101636.81
2018-05-23T06:49:04.425Z,101635.48
2018-05-23T06:51:31.335Z,101628.63
2018-05-23T06:53:57.252Z,101627.49
2018-05-23T06:56:23.374Z,101627.80
2018-05-23T06:58:49.272Z,101630.30
2018-05-23T07:01:15.199Z,101628.25
2018-05-23T07:03:43.148Z,101629.91
2018-05-23T07:06:09.011Z,101631.52
2018-05-23T07:08:34.947Z,101634.25
2018-05-23T07:11:00.851Z,101633.72
2018-05-23T07:13:26.742Z,101638.56
2018-05-23T07:15:52.695Z,101636.39
2018-05-23T07:18:20.601Z,101634.25
2018-05-23T07:20:46.528Z,101637.44
2018-05-23T07:23:12.444Z,101640.50
2018-05-23T07:25:38.327Z,101642.58
2018-05-23T07:28:04.228Z,101641.77
2018-05-23T07:30:30.148Z,101643.98
2018-05-23T07:32:56.032Z,101644.92
2018-05-23T07:35:21.908Z,101645.14
2018-05-23T07:37:47.827Z,101644.16
2018-05-23T07:40:13.700Z,101643.34
2018-05-23T07:42:40.370Z,101646.33
2018-05-23T07:45:06.285Z,101641.48
2018-05-23T07:47:32.160Z,101647.39
2018-05-23T07:49:58.029Z,101645.22
2018-05-23T07:52:23.955Z,101648.25
2018-05-23T07:54:49.852Z,101647.06
2018-05-23T07:57:15.723Z,101650.53
2018-05-23T07:59:41.647Z,101655.73
2018-05-23T08:02:07.536Z,101650.71
2018-05-23T08:04:33.425Z,101652.92
2018-05-23T08:06:59.343Z,101652.77
2018-05-23T08:09:25.243Z,101654.13
2018-05-23T08:11:51.116Z,101650.44
2018-05-23T08:14:17.069Z,101668.60
2018-05-23T08:16:43.010Z,101650.07
2018-05-23T08:19:08.889Z,101651.58
2018-05-23T08:21:34.863Z,101657.19
2018-05-23T08:24:00.770Z,101660.69
2018-05-23T08:26:26.675Z,101659.77
2018-05-23T08:28:52.607Z,101664.72
2018-05-23T08:31:18.494Z,101658.22
2018-05-23T08:33:44.396Z,101664.46
2018-05-23T08:36:10.356Z,101663.58
2018-05-23T08:38:36.223Z,101664.41
2018-05-23T08:41:02.107Z,101666.68
2018-05-23T08:43:28.059Z,101658.41
2018-05-23T08:45:53.976Z,101668.82
2018-05-23T08:48:19.834Z,101663.74
2018-05-23T08:50:45.768Z,101662.24
2018-05-23T08:53:11.661Z,101673.66
2018-05-23T08:55:37.543Z,101670.72
2018-05-23T08:58:03.494Z,101676.01
2018-05-23T09:00:29.383Z,101674.33
2018-05-23T09:02:55.247Z,101674.88
2018-05-23T09:05:21.176Z,101669.78
2018-05-23T09:07:47.321Z,101682.24
2018-05-23T09:10:14.105Z,101678.41
2018-05-23T09:12:40.061Z,101680.25
2018-05-23T09:15:05.927Z,101684.50
2018-05-23T09:17:31.854Z,101677.80
2018-05-23T09:19:57.779Z,101684.25
2018-05-23T09:22:23.646Z,101685.13
2018-05-23T09:24:49.515Z,101694.91
2018-05-23T09:27:15.435Z,101690.86
2018-05-23T09:29:41.312Z,101689.89
2018-05-23T09:32:07.202Z,101686.24
2018-05-23T09:34:33.216Z,101686.98
2018-05-23T09:36:59.097Z,101683.94
2018-05-23T09:39:24.983Z,101687.98
2018-05-23T09:41:50.959Z,101676.93
2018-05-23T09:44:16.841Z,101675.64
2018-05-23T09:46:42.740Z,101683.06
2018-05-23T09:49:08.688Z,101676.55
2018-05-23T09:51:34.604Z,101680.80
2018-05-23T09:54:00.471Z,101680.38
2018-05-23T09:56:26.420Z,101685.98
2018-05-23T09:58:53.381Z,101689.41
2018-05-23T10:01:19.278Z,101685.70
2018-05-23T10:03:45.291Z,101689.97
2018-05-23T10:06:11.188Z,101689.31
2018-05-23T10:08:37.075Z,101688.42
2018-05-23T10:11:03.000Z,101691.13
2018-05-23T10:13:28.883Z,101693.16
2018-05-23T10:15:54.767Z,101694.95
2018-05-23T10:18:20.735Z,101700.70
2018-05-23T10:20:46.640Z,101690.80
2018-05-23T10:23:12.542Z,101695.28
2018-05-23T10:25:38.465Z,101688.64
2018-05-23T10:28:04.344Z,101700.73
2018-05-23T10:30:30.260Z,101702.02
2018-05-23T10:32:56.184Z,101704.23
2018-05-23T10:35:22.072Z,101704.86
2018-05-23T10:37:47.960Z,101713.33
2018-05-23T10:40:14.930Z,101711.17
2018-05-23T10:42:40.817Z,101710.85
2018-05-23T10:45:06.744Z,101708.22
2018-05-23T10:47:32.660Z,101719.72
2018-05-23T10:49:58.539Z,101718.23
2018-05-23T10:52:24.520Z,101720.99
2018-05-23T10:54:50.387Z,101721.24
2018-05-23T10:57:16.398Z,101718.81
2018-05-23T10:59:42.440Z,101717.91
2018-05-23T11:02:08.361Z,101717.73
2018-05-23T11:04:34.240Z,101711.17
2018-05-23T11:07:00.667Z,101706.97
2018-05-23T11:09:26.609Z,101716.05
2018-05-23T11:11:52.511Z,101713.67
2018-05-23T11:14:18.413Z,101711.34
2018-05-23T11:16:44.358Z,101701.94
2018-05-23T11:19:10.327Z,101701.55
2018-05-23T11:21:36.256Z,101703.38
2018-05-23T11:24:02.199Z,101700.05
2018-05-23T11:26:30.144Z,101700.25
2018-05-23T11:28:56.028Z,101699.27
2018-05-23T11:31:21.987Z,101706.88
2018-05-23T11:33:47.900Z,101700.31
2018-05-23T11:36:13.786Z,101700.17
2018-05-23T11:38:39.716Z,101694.39
2018-05-23T11:41:05.609Z,101699.75
2018-05-23T11:43:31.516Z,101686.33
2018-05-23T11:45:57.468Z,101690.87
2018-05-23T11:48:23.355Z,101686.17
2018-05-23T11:50:49.251Z,101691.58
2018-05-23T11:53:15.207Z,101684.60
2018-05-23T11:55:41.104Z,101688.08
2018-05-23T11:58:07.080Z,101694.60
2018-05-23T12:00:33.048Z,101681.39
2018-05-23T12:02:58.936Z,101685.27
2018-05-23T12:05:24.808Z,101684.19
2018-05-23T12:07:50.781Z,101683.77
2018-05-23T12:10:16.731Z,101683.86
2018-05-23T12:12:42.616Z,101678.03
2018-05-23T12:15:08.579Z,101679.77
2018-05-23T12:17:34.480Z,101675.62
2018-05-23T12:20:00.423Z,101683.06
2018-05-23T12:22:26.380Z,101679.02
2018-05-23T12:24:52.272Z,101677.41
2018-05-23T12:27:18.241Z,101673.80
2018-05-23T12:29:44.343Z,101677.98
2018-05-23T12:32:10.242Z,101677.48
2018-05-23T12:34:36.147Z,101681.02
2018-05-23T12:37:02.104Z,101673.84
2018-05-23T12:39:27.981Z,101674.84
2018-05-23T12:41:53.872Z,101667.30
2018-05-23T12:44:19.817Z,101666.39
2018-05-23T12:46:45.983Z,101669.70
2018-05-23T12:49:11.976Z,101667.16
2018-05-23T12:51:37.891Z,101662.30
2018-05-23T12:54:03.766Z,101677.45
2018-05-23T12:56:29.668Z,101669.12
2018-05-23T12:58:55.615Z,101673.91
2018-05-23T13:01:21.628Z,101666.05
2018-05-23T13:03:47.540Z,101672.71
2018-05-23T13:06:13.467Z,101670.91
2018-05-23T13:08:39.327Z,101667.84
2018-05-23T13:11:05.199Z,101675.30
2018-05-23T13:13:31.124Z,101668.38
2018-05-23T13:15:58.040Z,101658.86
2018-05-23T13:18:23.910Z,101660.44
2018-05-23T13:20:49.939Z,101667.98
2018-05-23T13:23:15.843Z,101667.34
2018-05-23T13:25:41.737Z,101663.21
2018-05-23T13:28:07.676Z,101666.65
2018-05-23T13:30:33.604Z,101656.77
2018-05-23T13:32:59.505Z,101667.15
2018-05-23T13:35:25.433Z,101665.88
2018-05-23T13:37:51.351Z,101649.00
2018-05-23T13:40:17.284Z,101669.23
2018-05-23T13:42:43.236Z,101664.53
2018-05-23T13:45:09.111Z,101662.80
2018-05-23T13:47:35.000Z,101660.72
2018-05-23T13:50:00.999Z,101652.50
2018-05-23T13:52:26.879Z,101649.03
2018-05-23T13:54:52.752Z,101652.47
2018-05-23T13:57:19.791Z,101640.30
2018-05-23T13:59:45.697Z,101644.78
2018-05-23T14:02:11.589Z,101640.49
2018-05-23T14:04:37.544Z,101638.75
2018-05-23T14:07:03.439Z,101641.30
2018-05-23T14:09:29.331Z,101640.17
2018-05-23T14:11:55.258Z,101639.86
2018-05-23T14:14:21.139Z,101641.62
2018-05-23T14:16:47.027Z,101637.51
2018-05-23T14:19:13.020Z,101633.12
2018-05-23T14:21:38.952Z,101635.09
2018-05-23T14:24:04.838Z,101639.02
2018-05-23T14:26:30.759Z,101635.43
2018-05-23T14:28:57.704Z,101638.23
2018-05-23T14:31:23.582Z,101631.85
2018-05-23T14:33:49.499Z,101632.78
2018-05-23T14:36:15.387Z,101638.19
2018-05-23T14:38:41.281Z,101632.45
2018-05-23T14:41:07.261Z,101636.46
2018-05-23T14:43:33.165Z,101626.69
2018-05-23T14:45:59.057Z,101625.70
2018-05-23T14:48:25.067Z,101636.22
2018-05-23T14:50:50.953Z,101630.97
2018-05-23T14:53:21.498Z,101633.45
2018-05-23T14:55:47.751Z,101631.28
2018-05-23T14:58:13.651Z,101641.41
2018-05-23T15:00:39.545Z,101630.33
2018-05-23T15:03:05.679Z,101626.53
2018-05-23T15:05:31.461Z,101627.59
2018-05-23T15:07:57.433Z,101629.53
2018-05-23T15:10:23.405Z,101633.60
2018-05-23T15:12:49.278Z,101623.25
2018-05-23T15:15:15.160Z,101627.42
2018-05-23T15:17:41.136Z,101622.52
2018-05-23T15:20:07.087Z,101623.02
2018-05-23T15:22:32.994Z,101626.10
2018-05-23T15:25:03.192Z,101622.47
2018-05-23T15:27:29.085Z,101620.91
2018-05-23T15:29:54.975Z,101629.22
2018-05-23T15:32:20.912Z,101627.30
2018-05-23T15:34:46.813Z,101616.79
2018-05-23T15:37:12.751Z,101619.13
2018-05-23T15:39:38.675Z,101623.27
2018-05-23T15:42:04.563Z,101623.25
2018-05-23T15:44:30.507Z,101622.59
2018-05-23T15:46:56.422Z,101621.91
2018-05-23T15:49:22.335Z,101625.84
2018-05-23T15:51:48.200Z,101629.77
2018-05-23T15:54:14.412Z,101620.02
2018-05-23T15:56:40.334Z,101620.75
2018-05-23T15:59:06.209Z,101616.64
2018-05-23T16:01:32.152Z,101620.16
2018-05-23T16:03:58.044Z,101627.09
2018-05-23T16:06:25.017Z,101617.94
2018-05-23T16:08:50.970Z,101625.89
2018-05-23T16:11:16.851Z,101622.15
2018-05-23T16:13:42.740Z,101619.55
2018-05-23T16:16:08.667Z,101625.82
2018-05-23T16:18:34.567Z,101623.38
2018-05-23T16:21:00.449Z,101628.17
2018-05-23T16:23:26.472Z,101621.91
2018-05-23T16:25:52.366Z,101624.92
2018-05-23T16:28:18.311Z,101621.36
2018-05-23T16:30:44.251Z,101621.03
2018-05-23T16:33:10.143Z,101625.01
2018-05-23T16:35:46.187Z,101619.60
2018-05-23T16:38:12.057Z,101624.22
2018-05-23T16:40:37.935Z,101623.91
2018-05-23T16:43:03.856Z,101622.60
2018-05-23T16:45:29.734Z,101622.27
2018-05-23T16:47:55.619Z,101622.48
2018-05-23T16:50:21.597Z,101621.85
2018-05-23T16:52:47.513Z,101623.24
2018-05-23T16:55:13.400Z,101628.70
2018-05-23T16:57:39.312Z,101628.37
2018-05-23T17:00:05.196Z,101630.53
2018-05-23T17:02:31.089Z,101630.81
2018-05-23T17:04:57.023Z,101634.58
2018-05-23T17:07:22.912Z,101638.99
2018-05-23T17:09:48.799Z,101631.48
2018-05-23T17:12:14.759Z,101634.30
2018-05-23T17:14:40.723Z,101639.34
2018-05-23T17:17:06.619Z,101645.30
2018-05-23T17:19:32.564Z,101642.28
2018-05-23T17:21:58.463Z,101652.08
2018-05-23T17:24:24.423Z,101653.02
2018-05-23T17:26:50.350Z,101659.84
2018-05-23T17:29:16.248Z,101657.61
2018-05-23T17:31:42.127Z,101669.48
2018-05-23T17:34:08.698Z,101671.98
2018-05-23T17:36:34.572Z,101673.13
2018-05-23T17:39:00.487Z,101674.77
2018-05-23T17:41:27.775Z,101670.34
2018-05-23T17:43:54.796Z,101677.61
2018-05-23T17:46:20.662Z,101679.12
2018-05-23T17:48:46.612Z,101684.31
2018-05-23T17:51:12.597Z,101686.89
2018-05-23T17:53:38.499Z,101688.00
2018-05-23T17:56:04.436Z,101689.29
2018-05-23T17:58:30.471Z,101696.86
2018-05-23T18:00:56.366Z,101695.24
2018-05-23T18:03:22.415Z,101692.51
2018-05-23T18:05:48.335Z,101692.00
2018-05-23T18:08:14.255Z,101686.77
2018-05-23T18:10:40.163Z,101691.77
2018-05-23T18:13:06.047Z,101693.94
2018-05-23T18:15:31.952Z,101690.77
2018-05-23T18:17:57.897Z,101699.44
2018-05-23T18:20:23.801Z,101696.27
2018-05-23T18:22:49.671Z,101691.77
2018-05-23T18:25:15.726Z,101696.64
2018-05-23T18:27:41.640Z,101700.55
2018-05-23T18:30:07.508Z,101703.82
2018-05-23T18:32:33.442Z,101699.57
2018-05-23T18:35:00.323Z,101700.23
2018-05-23T18:37:26.611Z,101695.91
2018-05-23T18:39:52.625Z,101702.45
2018-05-23T18:42:18.525Z,101702.68
2018-05-23T18:44:44.950Z,101703.78
2018-05-23T18:47:12.589Z,101707.49
2018-05-23T18:49:39.023Z,101709.90
2018-05-23T18:52:05.438Z,101708.48
2018-05-23T18:54:32.111Z,101712.89
2018-05-23T18:56:58.052Z,101726.16
2018-05-23T18:59:23.939Z,101722.71
2018-05-23T19:01:50.586Z,101729.90
2018-05-23T19:04:17.159Z,101727.62
2018-05-23T19:06:43.171Z,101731.27
2018-05-23T19:09:09.117Z,101730.98
2018-05-23T19:11:37.496Z,101741.95
2018-05-23T19:14:03.468Z,101744.59
2018-05-23T19:16:29.404Z,101749.00
2018-05-23T19:18:55.333Z,101754.89
2018-05-23T19:21:21.216Z,101755.83
2018-05-23T19:23:47.749Z,101761.44
2018-05-23T19:26:13.948Z,101762.36
2018-05-23T19:28:39.843Z,101766.51
2018-05-23T19:31:05.851Z,101767.22
2018-05-23T19:33:32.022Z,101764.68
2018-05-23T19:35:58.030Z,101773.41
2018-05-23T19:38:24.059Z,101772.30
2018-05-23T19:40:49.947Z,101775.05
2018-05-23T19:43:15.888Z,101781.63
2018-05-23T19:45:42.049Z,101793.95
2018-05-23T19:48:08.495Z,101788.47
2018-05-23T19:50:35.542Z,101789.32
2018-05-23T19:53:01.704Z,101789.59
2018-05-23T19:55:27.431Z,101789.27
2018-05-23T19:57:53.658Z,101790.22
2018-05-23T20:00:19.768Z,101789.37
2018-05-23T20:02:45.833Z,101792.19
2018-05-23T20:05:11.840Z,101791.88
2018-05-23T20:07:37.991Z,101793.45
2018-05-23T20:10:04.655Z,101792.12
2018-05-23T20:12:30.525Z,101798.27
2018-05-23T20:14:56.579Z,101787.37
2018-05-23T20:17:22.461Z,101787.46
2018-05-23T20:19:48.359Z,101792.65
2018-05-23T20:22:15.413Z,101787.49
2018-05-23T20:24:41.301Z,101794.06
2018-05-23T20:27:07.167Z,101787.84
2018-05-23T20:29:33.096Z,101790.13
2018-05-23T20:31:59.013Z,101791.18
2018-05-23T20:34:24.898Z,101794.98
2018-05-23T20:36:50.811Z,101796.67
2018-05-23T20:39:16.685Z,101798.36
2018-05-23T20:41:42.563Z,101796.47
2018-05-23T20:44:12.956Z,101792.06
2018-05-23T20:46:38.950Z,101794.64
2018-05-23T20:49:04.984Z,101792.50
2018-05-23T20:51:30.899Z,101791.25
2018-05-23T20:53:56.763Z,101794.32
2018-05-23T20:56:22.649Z,101797.62
2018-05-23T20:58:48.606Z,101791.80
2018-05-23T21:01:14.469Z,101794.81
2018-05-23T21:03:40.333Z,101798.74
2018-05-23T21:06:06.264Z,101793.98
2018-05-23T21:08:32.165Z,101789.70
2018-05-23T21:10:58.051Z,101795.69
2018-05-23T21:13:23.977Z,101794.33
2018-05-23T21:15:49.852Z,101803.16
2018-05-23T21:18:15.724Z,101798.65
2018-05-23T21:20:41.655Z,101801.00
2018-05-23T21:23:07.542Z,101802.02
2018-05-23T21:25:33.433Z,101807.03
2018-05-23T21:27:59.388Z,101800.34
2018-05-23T21:30:25.279Z,101800.20
2018-05-23T21:32:51.147Z,101798.03
2018-05-23T21:35:17.065Z,101798.24
2018-05-23T21:37:42.947Z,101799.73
2018-05-23T21:40:08.828Z,101803.86
2018-05-23T21:42:34.749Z,101802.34
2018-05-23T21:45:00.616Z,101798.73
2018-05-23T21:47:26.501Z,101803.34
2018-05-23T21:49:52.462Z,101801.20
2018-05-23T21:52:21.780Z,101802.52
2018-05-23T21:54:47.656Z,101808.44
2018-05-23T21:57:13.572Z,101807.88
2018-05-23T21:59:39.458Z,101809.22
2018-05-23T22:02:05.335Z,101810.31
2018-05-23T22:04:31.255Z,101814.91
2018-05-23T22:06:57.151Z,101814.52
2018-05-23T22:09:23.052Z,101819.67
2018-05-23T22:11:49.024Z,101818.72
2018-05-23T22:14:14.919Z,101820.73
2018-05-23T22:16:40.808Z,101815.17
2018-05-23T22:19:06.728Z,101813.37
2018-05-23T22:21:32.617Z,101816.57
2018-05-23T22:23:58.498Z,101818.50
2018-05-23T22:26:24.413Z,101809.63
2018-05-23T22:28:50.287Z,101811.14
2018-05-23T22:31:16.239Z,101811.70
2018-05-23T22:33:42.150Z,101807.39
2018-05-23T22:36:08.029Z,101813.90
2018-05-23T22:38:33.931Z,101816.41
2018-05-23T22:40:59.892Z,101814.46
2018-05-23T22:43:25.772Z,101818.16
2018-05-23T22:45:51.667Z,101814.07
2018-05-23T22:48:17.584Z,101814.46
2018-05-23T22:50:43.511Z,101820.41
2018-05-23T22:53:09.405Z,101824.14
2018-05-23T22:55:35.316Z,101825.98
2018-05-23T22:58:01.191Z,101831.03
2018-05-23T23:00:27.095Z,101831.94
2018-05-23T23:02:53.035Z,101840.62
2018-05-23T23:05:18.896Z,101849.38
2018-05-23T23:07:44.774Z,101852.33
2018-05-23T23:10:10.688Z,101851.95
2018-05-23T23:12:36.571Z,101855.20
2018-05-23T23:15:02.473Z,101856.76
2018-05-23T23:17:28.404Z,101857.75
2018-05-23T23:19:54.280Z,101861.23
2018-05-23T23:22:32.516Z,101851.41
2018-05-23T23:24:58.398Z,101855.36
2018-05-23T23:27:24.259Z,101858.03
2018-05-23T23:29:50.164Z,101867.25
2018-05-23T23:32:16.059Z,101860.77
2018-05-23T23:34:41.953Z,101861.31
2018-05-23T23:37:07.882Z,101869.30
2018-05-23T23:39:34.590Z,101870.13
2018-05-23T23:42:00.459Z,101878.59
2018-05-23T23:44:26.384Z,101882.33
2018-05-23T23:46:52.283Z,101880.33
2018-05-23T23:49:18.158Z,101881.95
2018-05-23T23:51:44.234Z,101888.73
2018-05-23T23:54:10.095Z,101890.13
2018-05-23T23:56:35.968Z,101885.28
2018-05-23T23:59:01.899Z,101892.88
